sensor_id;sensor_type;location;lat;lon;timestamp;P1;durP1;ratioP1;P2;durP2;ratioP2
56102;SDS011;41970;48.774;9.280;2023-06-26T00:00:53;8.87;;;7.90;;
56102;SDS011;41970;48.774;9.280;2023-06-26T00:03:19;7.60;;;6.83;;
56102;SDS011;41970;48.774;9.280;2023-06-26T00:05:45;7.93;;;7.10;;
56102;SDS011;41970;48.774;9.280;2023-06-26T00:08:10;8.20;;;7.30;;
56102;SDS011;41970;48.774;9.280;2023-06-26T00:10:36;11.23;;;7.33;;
56102;SDS011;41970;48.774;9.280;2023-06-26T00:13:02;9.00;;;8.07;;
56102;SDS011;41970;48.774;9.280;2023-06-26T00:15:28;8.77;;;7.90;;
56102;SDS011;41970;48.774;9.280;2023-06-26T00:17:56;8.13;;;7.17;;
56102;SDS011;41970;48.774;9.280;2023-06-26T00:20:23;7.80;;;7.00;;
56102;SDS011;41970;48.774;9.280;2023-06-26T00:22:50;7.87;;;7.07;;
56102;SDS011;41970;48.774;9.280;2023-06-26T00:25:16;8.53;;;7.23;;
56102;SDS011;41970;48.774;9.280;2023-06-26T00:27:41;7.47;;;6.77;;
56102;SDS011;41970;48.774;9.280;2023-06-26T00:30:07;9.30;;;8.40;;
56102;SDS011;41970;48.774;9.280;2023-06-26T00:32:33;8.43;;;7.30;;
56102;SDS011;41970;48.774;9.280;2023-06-26T00:34:59;8.40;;;7.63;;
56102;SDS011;41970;48.774;9.280;2023-06-26T00:37:25;7.23;;;6.50;;
56102;SDS011;41970;48.774;9.280;2023-06-26T00:39:51;8.50;;;7.30;;
56102;SDS011;41970;48.774;9.280;2023-06-26T00:42:17;7.93;;;7.20;;
56102;SDS011;41970;48.774;9.280;2023-06-26T00:44:42;8.70;;;6.87;;
56102;SDS011;41970;48.774;9.280;2023-06-26T00:47:08;10.47;;;6.83;;
56102;SDS011;41970;48.774;9.280;2023-06-26T00:49:39;7.60;;;6.90;;
56102;SDS011;41970;48.774;9.280;2023-06-26T00:52:04;8.17;;;7.43;;
56102;SDS011;41970;48.774;9.280;2023-06-26T00:54:31;8.03;;;7.23;;
56102;SDS011;41970;48.774;9.280;2023-06-26T00:56:57;7.70;;;6.90;;
56102;SDS011;41970;48.774;9.280;2023-06-26T00:59:23;8.50;;;7.67;;
56102;SDS011;41970;48.774;9.280;2023-06-26T01:01:48;8.27;;;7.20;;
56102;SDS011;41970;48.774;9.280;2023-06-26T01:04:14;10.33;;;7.67;;
56102;SDS011;41970;48.774;9.280;2023-06-26T01:06:44;8.50;;;7.60;;
56102;SDS011;41970;48.774;9.280;2023-06-26T01:09:20;9.93;;;7.57;;
56102;SDS011;41970;48.774;9.280;2023-06-26T01:11:47;7.80;;;7.00;;
56102;SDS011;41970;48.774;9.280;2023-06-26T01:14:13;8.30;;;7.47;;
56102;SDS011;41970;48.774;9.280;2023-06-26T01:16:39;7.90;;;7.10;;
56102;SDS011;41970;48.774;9.280;2023-06-26T01:19:09;8.17;;;7.37;;
56102;SDS011;41970;48.774;9.280;2023-06-26T01:21:39;8.77;;;7.97;;
56102;SDS011;41970;48.774;9.280;2023-06-26T01:24:18;8.57;;;7.07;;
56102;SDS011;41970;48.774;9.280;2023-06-26T01:26:45;8.77;;;7.97;;
56102;SDS011;41970;48.774;9.280;2023-06-26T01:29:16;8.67;;;7.33;;
56102;SDS011;41970;48.774;9.280;2023-06-26T01:31:43;8.70;;;7.80;;
56102;SDS011;41970;48.774;9.280;2023-06-26T01:34:12;10.43;;;8.37;;
56102;SDS011;41970;48.774;9.280;2023-06-26T01:36:40;8.33;;;7.63;;
56102;SDS011;41970;48.774;9.280;2023-06-26T01:39:06;8.70;;;7.80;;
56102;SDS011;41970;48.774;9.280;2023-06-26T01:41:33;8.77;;;7.87;;
56102;SDS011;41970;48.774;9.280;2023-06-26T01:49:21;8.10;;;7.30;;
56102;SDS011;41970;48.774;9.280;2023-06-26T01:54:31;9.60;;;7.67;;
56102;SDS011;41970;48.774;9.280;2023-06-26T01:57:02;7.47;;;6.77;;
56102;SDS011;41970;48.774;9.280;2023-06-26T01:59:31;8.07;;;7.27;;
56102;SDS011;41970;48.774;9.280;2023-06-26T02:02:00;7.90;;;7.17;;
56102;SDS011;41970;48.774;9.280;2023-06-26T02:04:26;8.17;;;7.37;;
56102;SDS011;41970;48.774;9.280;2023-06-26T02:06:52;9.23;;;7.33;;
56102;SDS011;41970;48.774;9.280;2023-06-26T02:09:17;7.53;;;6.80;;
56102;SDS011;41970;48.774;9.280;2023-06-26T02:11:44;8.40;;;7.47;;
56102;SDS011;41970;48.774;9.280;2023-06-26T02:14:09;8.00;;;7.30;;
56102;SDS011;41970;48.774;9.280;2023-06-26T02:16:36;7.60;;;6.90;;
56102;SDS011;41970;48.774;9.280;2023-06-26T02:19:02;8.03;;;7.27;;
56102;SDS011;41970;48.774;9.280;2023-06-26T02:21:27;7.83;;;7.03;;
56102;SDS011;41970;48.774;9.280;2023-06-26T02:23:53;8.90;;;7.63;;
56102;SDS011;41970;48.774;9.280;2023-06-26T02:26:19;9.30;;;7.67;;
56102;SDS011;41970;48.774;9.280;2023-06-26T02:28:45;10.77;;;8.37;;
56102;SDS011;41970;48.774;9.280;2023-06-26T02:31:11;9.00;;;8.10;;
56102;SDS011;41970;48.774;9.280;2023-06-26T02:33:37;8.67;;;7.43;;
56102;SDS011;41970;48.774;9.280;2023-06-26T02:36:03;7.50;;;6.80;;
56102;SDS011;41970;48.774;9.280;2023-06-26T02:38:28;7.80;;;7.10;;
56102;SDS011;41970;48.774;9.280;2023-06-26T02:40:54;8.07;;;7.10;;
56102;SDS011;41970;48.774;9.280;2023-06-26T02:43:20;7.87;;;7.17;;
56102;SDS011;41970;48.774;9.280;2023-06-26T02:45:46;11.87;;;7.53;;
56102;SDS011;41970;48.774;9.280;2023-06-26T02:48:11;8.87;;;7.97;;
56102;SDS011;41970;48.774;9.280;2023-06-26T02:50:37;8.13;;;7.43;;
56102;SDS011;41970;48.774;9.280;2023-06-26T02:53:03;9.00;;;7.50;;
56102;SDS011;41970;48.774;9.280;2023-06-26T02:55:28;7.63;;;6.93;;
56102;SDS011;41970;48.774;9.280;2023-06-26T02:57:54;7.80;;;7.10;;
56102;SDS011;41970;48.774;9.280;2023-06-26T03:00:20;7.90;;;7.20;;
56102;SDS011;41970;48.774;9.280;2023-06-26T03:02:45;7.40;;;6.70;;
56102;SDS011;41970;48.774;9.280;2023-06-26T03:05:11;8.50;;;7.60;;
56102;SDS011;41970;48.774;9.280;2023-06-26T03:07:39;8.57;;;7.50;;
56102;SDS011;41970;48.774;9.280;2023-06-26T03:10:05;8.37;;;7.57;;
56102;SDS011;41970;48.774;9.280;2023-06-26T03:12:31;8.43;;;7.53;;
56102;SDS011;41970;48.774;9.280;2023-06-26T03:14:57;8.80;;;7.90;;
56102;SDS011;41970;48.774;9.280;2023-06-26T03:17:22;7.53;;;6.40;;
56102;SDS011;41970;48.774;9.280;2023-06-26T03:19:48;7.67;;;6.93;;
56102;SDS011;41970;48.774;9.280;2023-06-26T03:22:14;7.33;;;6.63;;
56102;SDS011;41970;48.774;9.280;2023-06-26T03:24:39;8.23;;;7.43;;
56102;SDS011;41970;48.774;9.280;2023-06-26T03:27:05;8.53;;;7.60;;
56102;SDS011;41970;48.774;9.280;2023-06-26T03:29:31;8.63;;;7.73;;
56102;SDS011;41970;48.774;9.280;2023-06-26T03:31:57;8.37;;;7.63;;
56102;SDS011;41970;48.774;9.280;2023-06-26T03:34:23;7.97;;;7.20;;
56102;SDS011;41970;48.774;9.280;2023-06-26T03:36:49;8.57;;;7.77;;
56102;SDS011;41970;48.774;9.280;2023-06-26T03:39:14;8.60;;;7.50;;
56102;SDS011;41970;48.774;9.280;2023-06-26T03:41:40;8.57;;;7.77;;
56102;SDS011;41970;48.774;9.280;2023-06-26T03:44:06;10.97;;;7.80;;
56102;SDS011;41970;48.774;9.280;2023-06-26T03:46:31;9.03;;;8.10;;
56102;SDS011;41970;48.774;9.280;2023-06-26T03:48:57;8.07;;;7.10;;
56102;SDS011;41970;48.774;9.280;2023-06-26T03:51:23;7.37;;;6.67;;
56102;SDS011;41970;48.774;9.280;2023-06-26T03:53:49;7.60;;;6.93;;
56102;SDS011;41970;48.774;9.280;2023-06-26T03:56:14;8.60;;;7.77;;
56102;SDS011;41970;48.774;9.280;2023-06-26T03:58:40;8.57;;;7.67;;
56102;SDS011;41970;48.774;9.280;2023-06-26T04:01:06;8.47;;;7.67;;
56102;SDS011;41970;48.774;9.280;2023-06-26T04:03:31;10.40;;;8.43;;
56102;SDS011;41970;48.774;9.280;2023-06-26T04:05:58;8.03;;;7.23;;
56102;SDS011;41970;48.774;9.280;2023-06-26T04:08:24;9.27;;;8.37;;
56102;SDS011;41970;48.774;9.280;2023-06-26T04:10:51;8.90;;;7.97;;
56102;SDS011;41970;48.774;9.280;2023-06-26T04:13:18;8.33;;;7.53;;
56102;SDS011;41970;48.774;9.280;2023-06-26T04:15:44;8.37;;;7.27;;
56102;SDS011;41970;48.774;9.280;2023-06-26T04:18:10;7.97;;;7.17;;
56102;SDS011;41970;48.774;9.280;2023-06-26T04:20:38;7.97;;;7.17;;
56102;SDS011;41970;48.774;9.280;2023-06-26T04:23:06;8.90;;;8.00;;
56102;SDS011;41970;48.774;9.280;2023-06-26T04:25:31;9.83;;;8.73;;
56102;SDS011;41970;48.774;9.280;2023-06-26T04:27:58;7.73;;;6.93;;
56102;SDS011;41970;48.774;9.280;2023-06-26T04:30:24;10.20;;;7.00;;
56102;SDS011;41970;48.774;9.280;2023-06-26T04:32:50;7.90;;;7.00;;
56102;SDS011;41970;48.774;9.280;2023-06-26T04:35:15;8.07;;;7.27;;
56102;SDS011;41970;48.774;9.280;2023-06-26T04:37:41;8.10;;;7.23;;
56102;SDS011;41970;48.774;9.280;2023-06-26T04:40:07;8.77;;;7.97;;
56102;SDS011;41970;48.774;9.280;2023-06-26T04:42:34;8.50;;;7.50;;
56102;SDS011;41970;48.774;9.280;2023-06-26T04:45:00;8.07;;;7.27;;
56102;SDS011;41970;48.774;9.280;2023-06-26T04:47:27;8.00;;;7.20;;
56102;SDS011;41970;48.774;9.280;2023-06-26T04:49:53;9.13;;;8.10;;
56102;SDS011;41970;48.774;9.280;2023-06-26T04:52:20;8.53;;;7.73;;
56102;SDS011;41970;48.774;9.280;2023-06-26T04:54:45;8.47;;;7.63;;
56102;SDS011;41970;48.774;9.280;2023-06-26T04:57:11;8.57;;;7.77;;
56102;SDS011;41970;48.774;9.280;2023-06-26T04:59:37;8.83;;;8.03;;
56102;SDS011;41970;48.774;9.280;2023-06-26T05:02:03;8.50;;;7.60;;
56102;SDS011;41970;48.774;9.280;2023-06-26T05:04:30;8.67;;;7.87;;
56102;SDS011;41970;48.774;9.280;2023-06-26T05:06:55;8.60;;;7.70;;
56102;SDS011;41970;48.774;9.280;2023-06-26T05:09:21;8.80;;;6.93;;
56102;SDS011;41970;48.774;9.280;2023-06-26T05:11:47;9.73;;;7.17;;
56102;SDS011;41970;48.774;9.280;2023-06-26T05:14:12;8.47;;;7.67;;
56102;SDS011;41970;48.774;9.280;2023-06-26T05:16:38;7.40;;;6.70;;
56102;SDS011;41970;48.774;9.280;2023-06-26T05:19:04;9.43;;;7.87;;
56102;SDS011;41970;48.774;9.280;2023-06-26T05:21:30;8.60;;;7.30;;
56102;SDS011;41970;48.774;9.280;2023-06-26T05:23:56;8.40;;;7.60;;
56102;SDS011;41970;48.774;9.280;2023-06-26T05:26:23;10.50;;;7.70;;
56102;SDS011;41970;48.774;9.280;2023-06-26T05:28:49;8.57;;;7.77;;
56102;SDS011;41970;48.774;9.280;2023-06-26T05:31:15;7.90;;;7.20;;
56102;SDS011;41970;48.774;9.280;2023-06-26T05:33:43;7.50;;;6.67;;
56102;SDS011;41970;48.774;9.280;2023-06-26T05:36:10;7.90;;;7.13;;
56102;SDS011;41970;48.774;9.280;2023-06-26T05:38:38;7.70;;;6.97;;
56102;SDS011;41970;48.774;9.280;2023-06-26T05:41:04;8.80;;;8.00;;
56102;SDS011;41970;48.774;9.280;2023-06-26T05:43:30;7.10;;;6.47;;
56102;SDS011;41970;48.774;9.280;2023-06-26T05:45:56;10.03;;;7.10;;
56102;SDS011;41970;48.774;9.280;2023-06-26T05:48:25;7.83;;;7.07;;
56102;SDS011;41970;48.774;9.280;2023-06-26T05:50:51;8.70;;;7.90;;
56102;SDS011;41970;48.774;9.280;2023-06-26T05:53:17;8.07;;;6.40;;
56102;SDS011;41970;48.774;9.280;2023-06-26T05:55:43;9.07;;;8.17;;
56102;SDS011;41970;48.774;9.280;2023-06-26T05:58:09;8.20;;;7.27;;
56102;SDS011;41970;48.774;9.280;2023-06-26T06:00:36;9.10;;;8.23;;
56102;SDS011;41970;48.774;9.280;2023-06-26T06:03:03;8.50;;;7.70;;
56102;SDS011;41970;48.774;9.280;2023-06-26T06:05:28;8.77;;;7.87;;
56102;SDS011;41970;48.774;9.280;2023-06-26T06:07:54;9.23;;;7.50;;
56102;SDS011;41970;48.774;9.280;2023-06-26T06:10:20;7.60;;;6.90;;
56102;SDS011;41970;48.774;9.280;2023-06-26T06:12:45;8.77;;;6.87;;
56102;SDS011;41970;48.774;9.280;2023-06-26T06:15:11;10.33;;;7.80;;
56102;SDS011;41970;48.774;9.280;2023-06-26T06:17:37;8.00;;;7.30;;
56102;SDS011;41970;48.774;9.280;2023-06-26T06:20:05;9.97;;;6.87;;
56102;SDS011;41970;48.774;9.280;2023-06-26T06:22:31;8.90;;;7.70;;
56102;SDS011;41970;48.774;9.280;2023-06-26T06:24:57;8.30;;;7.50;;
56102;SDS011;41970;48.774;9.280;2023-06-26T06:27:23;7.80;;;7.00;;
56102;SDS011;41970;48.774;9.280;2023-06-26T06:29:48;8.63;;;7.20;;
56102;SDS011;41970;48.774;9.280;2023-06-26T06:32:14;8.10;;;7.30;;
56102;SDS011;41970;48.774;9.280;2023-06-26T06:34:40;8.07;;;7.27;;
56102;SDS011;41970;48.774;9.280;2023-06-26T06:37:06;9.03;;;8.13;;
56102;SDS011;41970;48.774;9.280;2023-06-26T06:39:32;7.50;;;6.73;;
56102;SDS011;41970;48.774;9.280;2023-06-26T06:41:57;9.47;;;8.13;;
56102;SDS011;41970;48.774;9.280;2023-06-26T06:44:23;10.83;;;7.43;;
56102;SDS011;41970;48.774;9.280;2023-06-26T06:46:49;9.80;;;8.00;;
56102;SDS011;41970;48.774;9.280;2023-06-26T06:49:14;7.83;;;7.03;;
56102;SDS011;41970;48.774;9.280;2023-06-26T06:51:40;7.50;;;6.80;;
56102;SDS011;41970;48.774;9.280;2023-06-26T06:54:06;8.60;;;7.80;;
56102;SDS011;41970;48.774;9.280;2023-06-26T06:56:32;7.80;;;7.10;;
56102;SDS011;41970;48.774;9.280;2023-06-26T06:58:57;8.23;;;7.03;;
56102;SDS011;41970;48.774;9.280;2023-06-26T07:01:23;7.50;;;6.80;;
56102;SDS011;41970;48.774;9.280;2023-06-26T07:03:49;8.90;;;7.20;;
56102;SDS011;41970;48.774;9.280;2023-06-26T07:06:18;7.47;;;6.40;;
56102;SDS011;41970;48.774;9.280;2023-06-26T07:08:43;8.10;;;7.40;;
56102;SDS011;41970;48.774;9.280;2023-06-26T07:11:09;10.17;;;6.67;;
56102;SDS011;41970;48.774;9.280;2023-06-26T07:13:35;7.47;;;6.80;;
56102;SDS011;41970;48.774;9.280;2023-06-26T07:16:01;8.27;;;7.00;;
56102;SDS011;41970;48.774;9.280;2023-06-26T07:18:27;8.70;;;7.90;;
56102;SDS011;41970;48.774;9.280;2023-06-26T07:20:53;8.47;;;7.67;;
56102;SDS011;41970;48.774;9.280;2023-06-26T07:23:19;8.40;;;7.60;;
56102;SDS011;41970;48.774;9.280;2023-06-26T07:25:44;8.13;;;6.97;;
56102;SDS011;41970;48.774;9.280;2023-06-26T07:28:13;8.37;;;7.57;;
56102;SDS011;41970;48.774;9.280;2023-06-26T07:30:39;8.30;;;6.47;;
56102;SDS011;41970;48.774;9.280;2023-06-26T07:33:05;7.50;;;6.80;;
56102;SDS011;41970;48.774;9.280;2023-06-26T07:35:31;8.10;;;6.83;;
56102;SDS011;41970;48.774;9.280;2023-06-26T07:37:57;7.90;;;7.20;;
56102;SDS011;41970;48.774;9.280;2023-06-26T07:40:22;8.47;;;7.43;;
56102;SDS011;41970;48.774;9.280;2023-06-26T07:42:48;7.20;;;6.60;;
56102;SDS011;41970;48.774;9.280;2023-06-26T07:45:14;7.47;;;6.70;;
56102;SDS011;41970;48.774;9.280;2023-06-26T07:47:40;6.57;;;5.97;;
56102;SDS011;41970;48.774;9.280;2023-06-26T07:50:06;6.97;;;6.30;;
56102;SDS011;41970;48.774;9.280;2023-06-26T07:52:32;7.63;;;6.60;;
56102;SDS011;41970;48.774;9.280;2023-06-26T07:54:57;6.90;;;6.20;;
56102;SDS011;41970;48.774;9.280;2023-06-26T07:57:23;8.33;;;7.63;;
56102;SDS011;41970;48.774;9.280;2023-06-26T07:59:49;9.60;;;7.60;;
56102;SDS011;41970;48.774;9.280;2023-06-26T08:02:15;7.30;;;6.70;;
56102;SDS011;41970;48.774;9.280;2023-06-26T08:04:41;7.67;;;6.93;;
56102;SDS011;41970;48.774;9.280;2023-06-26T08:07:07;7.93;;;7.10;;
56102;SDS011;41970;48.774;9.280;2023-06-26T08:09:33;6.40;;;5.80;;
56102;SDS011;41970;48.774;9.280;2023-06-26T08:11:59;9.17;;;6.93;;
56102;SDS011;41970;48.774;9.280;2023-06-26T08:14:25;8.63;;;7.07;;
56102;SDS011;41970;48.774;9.280;2023-06-26T08:16:51;7.10;;;6.50;;
56102;SDS011;41970;48.774;9.280;2023-06-26T08:19:17;7.33;;;6.63;;
56102;SDS011;41970;48.774;9.280;2023-06-26T08:21:43;7.20;;;6.60;;
56102;SDS011;41970;48.774;9.280;2023-06-26T08:24:10;7.10;;;6.37;;
56102;SDS011;41970;48.774;9.280;2023-06-26T08:26:36;7.40;;;6.70;;
56102;SDS011;41970;48.774;9.280;2023-06-26T08:29:02;7.67;;;6.97;;
56102;SDS011;41970;48.774;9.280;2023-06-26T08:31:34;7.73;;;7.13;;
56102;SDS011;41970;48.774;9.280;2023-06-26T08:34:01;7.33;;;6.70;;
56102;SDS011;41970;48.774;9.280;2023-06-26T08:36:28;7.00;;;6.40;;
56102;SDS011;41970;48.774;9.280;2023-06-26T08:38:53;6.87;;;6.10;;
56102;SDS011;41970;48.774;9.280;2023-06-26T08:41:19;7.53;;;6.93;;
56102;SDS011;41970;48.774;9.280;2023-06-26T08:43:45;6.33;;;5.63;;
56102;SDS011;41970;48.774;9.280;2023-06-26T08:46:11;7.07;;;6.57;;
56102;SDS011;41970;48.774;9.280;2023-06-26T08:48:37;7.13;;;6.40;;
56102;SDS011;41970;48.774;9.280;2023-06-26T08:51:09;7.33;;;6.30;;
56102;SDS011;41970;48.774;9.280;2023-06-26T08:53:42;6.90;;;6.30;;
56102;SDS011;41970;48.774;9.280;2023-06-26T08:56:08;6.20;;;5.70;;
56102;SDS011;41970;48.774;9.280;2023-06-26T08:58:37;6.20;;;5.60;;
56102;SDS011;41970;48.774;9.280;2023-06-26T09:01:04;7.47;;;6.60;;
56102;SDS011;41970;48.774;9.280;2023-06-26T09:03:31;6.37;;;5.87;;
56102;SDS011;41970;48.774;9.280;2023-06-26T09:05:58;6.43;;;5.90;;
56102;SDS011;41970;48.774;9.280;2023-06-26T09:08:23;6.20;;;5.60;;
56102;SDS011;41970;48.774;9.280;2023-06-26T09:10:49;6.40;;;5.90;;
56102;SDS011;41970;48.774;9.280;2023-06-26T09:13:16;6.53;;;6.03;;
56102;SDS011;41970;48.774;9.280;2023-06-26T09:15:43;7.60;;;6.97;;
56102;SDS011;41970;48.774;9.280;2023-06-26T09:18:10;7.43;;;6.83;;
56102;SDS011;41970;48.774;9.280;2023-06-26T09:20:36;7.07;;;6.37;;
56102;SDS011;41970;48.774;9.280;2023-06-26T09:23:02;6.73;;;6.13;;
56102;SDS011;41970;48.774;9.280;2023-06-26T09:25:29;8.23;;;6.07;;
56102;SDS011;41970;48.774;9.280;2023-06-26T09:27:55;6.40;;;5.63;;
56102;SDS011;41970;48.774;9.280;2023-06-26T09:30:21;7.50;;;5.70;;
56102;SDS011;41970;48.774;9.280;2023-06-26T09:32:48;6.53;;;5.90;;
56102;SDS011;41970;48.774;9.280;2023-06-26T09:35:15;6.33;;;5.80;;
56102;SDS011;41970;48.774;9.280;2023-06-26T09:37:41;6.37;;;5.83;;
56102;SDS011;41970;48.774;9.280;2023-06-26T09:40:08;6.80;;;6.20;;
56102;SDS011;41970;48.774;9.280;2023-06-26T09:42:35;6.17;;;5.67;;
56102;SDS011;41970;48.774;9.280;2023-06-26T09:45:01;7.20;;;6.60;;
56102;SDS011;41970;48.774;9.280;2023-06-26T09:47:29;6.93;;;6.37;;
56102;SDS011;41970;48.774;9.280;2023-06-26T09:49:56;6.40;;;5.63;;
56102;SDS011;41970;48.774;9.280;2023-06-26T09:52:21;6.53;;;5.93;;
56102;SDS011;41970;48.774;9.280;2023-06-26T09:55:06;5.37;;;4.97;;
56102;SDS011;41970;48.774;9.280;2023-06-26T09:57:34;5.40;;;5.00;;
56102;SDS011;41970;48.774;9.280;2023-06-26T10:00:01;6.13;;;5.50;;
56102;SDS011;41970;48.774;9.280;2023-06-26T10:02:27;5.80;;;5.10;;
56102;SDS011;41970;48.774;9.280;2023-06-26T10:04:53;5.93;;;5.40;;
56102;SDS011;41970;48.774;9.280;2023-06-26T10:07:19;6.13;;;5.53;;
56102;SDS011;41970;48.774;9.280;2023-06-26T10:09:47;5.80;;;5.30;;
56102;SDS011;41970;48.774;9.280;2023-06-26T10:14:55;6.27;;;5.77;;
56102;SDS011;41970;48.774;9.280;2023-06-26T10:17:23;6.93;;;6.23;;
56102;SDS011;41970;48.774;9.280;2023-06-26T10:19:51;6.10;;;5.50;;
56102;SDS011;41970;48.774;9.280;2023-06-26T10:22:20;7.17;;;6.10;;
56102;SDS011;41970;48.774;9.280;2023-06-26T10:24:49;6.73;;;6.23;;
56102;SDS011;41970;48.774;9.280;2023-06-26T10:27:18;7.30;;;6.70;;
56102;SDS011;41970;48.774;9.280;2023-06-26T10:29:46;6.77;;;6.17;;
56102;SDS011;41970;48.774;9.280;2023-06-26T10:32:18;7.70;;;6.60;;
56102;SDS011;41970;48.774;9.280;2023-06-26T10:34:46;7.23;;;6.63;;
56102;SDS011;41970;48.774;9.280;2023-06-26T10:37:12;7.13;;;6.43;;
56102;SDS011;41970;48.774;9.280;2023-06-26T10:39:51;6.33;;;5.73;;
56102;SDS011;41970;48.774;9.280;2023-06-26T10:42:19;7.03;;;6.43;;
56102;SDS011;41970;48.774;9.280;2023-06-26T10:45:08;7.97;;;7.37;;
56102;SDS011;41970;48.774;9.280;2023-06-26T10:47:37;7.20;;;6.50;;
56102;SDS011;41970;48.774;9.280;2023-06-26T10:50:23;7.30;;;6.70;;
56102;SDS011;41970;48.774;9.280;2023-06-26T10:56:02;7.33;;;6.63;;
56102;SDS011;41970;48.774;9.280;2023-06-26T11:01:21;8.57;;;7.70;;
56102;SDS011;41970;48.774;9.280;2023-06-26T11:06:17;8.93;;;6.60;;
56102;SDS011;41970;48.774;9.280;2023-06-26T11:08:49;7.77;;;7.17;;
56102;SDS011;41970;48.774;9.280;2023-06-26T11:11:19;7.80;;;7.20;;
56102;SDS011;41970;48.774;9.280;2023-06-26T11:13:46;7.63;;;7.00;;
56102;SDS011;41970;48.774;9.280;2023-06-26T11:16:12;7.50;;;6.90;;
56102;SDS011;41970;48.774;9.280;2023-06-26T11:18:39;9.10;;;6.93;;
56102;SDS011;41970;48.774;9.280;2023-06-26T11:21:09;7.67;;;6.97;;
56102;SDS011;41970;48.774;9.280;2023-06-26T11:23:38;7.70;;;7.10;;
56102;SDS011;41970;48.774;9.280;2023-06-26T11:26:18;7.53;;;6.83;;
56102;SDS011;41970;48.774;9.280;2023-06-26T11:28:54;7.10;;;6.40;;
56102;SDS011;41970;48.774;9.280;2023-06-26T11:31:24;7.57;;;6.97;;
56102;SDS011;41970;48.774;9.280;2023-06-26T11:33:51;8.53;;;7.33;;
56102;SDS011;41970;48.774;9.280;2023-06-26T11:36:18;11.80;;;6.50;;
56102;SDS011;41970;48.774;9.280;2023-06-26T11:38:43;6.60;;;5.87;;
56102;SDS011;41970;48.774;9.280;2023-06-26T11:41:09;8.17;;;7.37;;
56102;SDS011;41970;48.774;9.280;2023-06-26T11:43:35;8.43;;;7.43;;
56102;SDS011;41970;48.774;9.280;2023-06-26T11:46:01;7.80;;;7.00;;
56102;SDS011;41970;48.774;9.280;2023-06-26T11:48:26;6.70;;;6.10;;
56102;SDS011;41970;48.774;9.280;2023-06-26T11:50:54;7.30;;;6.70;;
56102;SDS011;41970;48.774;9.280;2023-06-26T11:53:19;9.53;;;6.53;;
56102;SDS011;41970;48.774;9.280;2023-06-26T11:55:45;7.30;;;6.70;;
56102;SDS011;41970;48.774;9.280;2023-06-26T11:58:11;7.50;;;6.90;;
56102;SDS011;41970;48.774;9.280;2023-06-26T12:00:43;8.27;;;7.60;;
56102;SDS011;41970;48.774;9.280;2023-06-26T12:03:09;7.80;;;7.10;;
56102;SDS011;41970;48.774;9.280;2023-06-26T12:05:35;8.17;;;7.37;;
56102;SDS011;41970;48.774;9.280;2023-06-26T12:08:01;7.20;;;6.60;;
56102;SDS011;41970;48.774;9.280;2023-06-26T12:10:28;9.60;;;7.03;;
56102;SDS011;41970;48.774;9.280;2023-06-26T12:12:54;6.47;;;5.87;;
56102;SDS011;41970;48.774;9.280;2023-06-26T12:15:23;7.10;;;6.50;;
56102;SDS011;41970;48.774;9.280;2023-06-26T12:17:49;8.13;;;7.20;;
56102;SDS011;41970;48.774;9.280;2023-06-26T12:20:18;7.20;;;6.60;;
56102;SDS011;41970;48.774;9.280;2023-06-26T12:22:48;6.90;;;6.33;;
56102;SDS011;41970;48.774;9.280;2023-06-26T12:25:14;6.67;;;6.17;;
56102;SDS011;41970;48.774;9.280;2023-06-26T12:27:40;9.03;;;6.47;;
56102;SDS011;41970;48.774;9.280;2023-06-26T12:30:06;7.33;;;6.70;;
56102;SDS011;41970;48.774;9.280;2023-06-26T12:32:34;7.60;;;7.00;;
56102;SDS011;41970;48.774;9.280;2023-06-26T12:35:00;12.33;;;6.50;;
56102;SDS011;41970;48.774;9.280;2023-06-26T12:37:26;7.27;;;6.57;;
56102;SDS011;41970;48.774;9.280;2023-06-26T12:39:56;6.87;;;6.23;;
56102;SDS011;41970;48.774;9.280;2023-06-26T12:42:23;6.87;;;6.27;;
56102;SDS011;41970;48.774;9.280;2023-06-26T12:44:50;6.80;;;6.20;;
56102;SDS011;41970;48.774;9.280;2023-06-26T12:47:17;8.77;;;6.60;;
56102;SDS011;41970;48.774;9.280;2023-06-26T12:49:51;6.80;;;6.10;;
56102;SDS011;41970;48.774;9.280;2023-06-26T12:52:17;8.63;;;6.80;;
56102;SDS011;41970;48.774;9.280;2023-06-26T12:54:44;7.43;;;6.63;;
56102;SDS011;41970;48.774;9.280;2023-06-26T12:57:11;7.47;;;6.77;;
56102;SDS011;41970;48.774;9.280;2023-06-26T12:59:41;8.03;;;6.73;;
56102;SDS011;41970;48.774;9.280;2023-06-26T13:02:07;6.90;;;6.20;;
56102;SDS011;41970;48.774;9.280;2023-06-26T13:04:33;7.60;;;6.80;;
56102;SDS011;41970;48.774;9.280;2023-06-26T13:07:00;6.80;;;6.20;;
56102;SDS011;41970;48.774;9.280;2023-06-26T13:09:26;6.33;;;5.83;;
56102;SDS011;41970;48.774;9.280;2023-06-26T13:11:53;8.40;;;6.60;;
56102;SDS011;41970;48.774;9.280;2023-06-26T13:14:19;9.93;;;7.10;;
56102;SDS011;41970;48.774;9.280;2023-06-26T13:16:46;7.03;;;5.80;;
56102;SDS011;41970;48.774;9.280;2023-06-26T13:19:12;18.70;;;6.53;;
56102;SDS011;41970;48.774;9.280;2023-06-26T13:21:38;5.87;;;5.37;;
56102;SDS011;41970;48.774;9.280;2023-06-26T13:24:05;6.90;;;5.70;;
56102;SDS011;41970;48.774;9.280;2023-06-26T13:26:31;12.47;;;6.90;;
56102;SDS011;41970;48.774;9.280;2023-06-26T13:28:57;8.23;;;6.57;;
56102;SDS011;41970;48.774;9.280;2023-06-26T13:31:23;8.03;;;6.43;;
56102;SDS011;41970;48.774;9.280;2023-06-26T13:33:49;7.90;;;7.10;;
56102;SDS011;41970;48.774;9.280;2023-06-26T13:36:17;7.40;;;6.70;;
56102;SDS011;41970;48.774;9.280;2023-06-26T13:38:43;6.57;;;5.57;;
56102;SDS011;41970;48.774;9.280;2023-06-26T13:41:10;8.53;;;5.43;;
56102;SDS011;41970;48.774;9.280;2023-06-26T13:43:36;7.90;;;5.60;;
56102;SDS011;41970;48.774;9.280;2023-06-26T13:46:02;6.47;;;5.83;;
56102;SDS011;41970;48.774;9.280;2023-06-26T13:48:28;9.50;;;6.77;;
56102;SDS011;41970;48.774;9.280;2023-06-26T13:50:54;7.80;;;7.00;;
56102;SDS011;41970;48.774;9.280;2023-06-26T13:53:21;6.93;;;6.33;;
56102;SDS011;41970;48.774;9.280;2023-06-26T13:55:47;10.30;;;6.30;;
56102;SDS011;41970;48.774;9.280;2023-06-26T13:58:13;6.00;;;5.50;;
56102;SDS011;41970;48.774;9.280;2023-06-26T14:00:39;6.33;;;5.73;;
56102;SDS011;41970;48.774;9.280;2023-06-26T14:03:06;8.63;;;6.20;;
56102;SDS011;41970;48.774;9.280;2023-06-26T14:05:35;6.50;;;5.47;;
56102;SDS011;41970;48.774;9.280;2023-06-26T14:08:07;6.43;;;5.67;;
56102;SDS011;41970;48.774;9.280;2023-06-26T14:10:33;6.40;;;5.80;;
56102;SDS011;41970;48.774;9.280;2023-06-26T14:13:00;6.80;;;4.87;;
56102;SDS011;41970;48.774;9.280;2023-06-26T14:15:25;5.90;;;5.40;;
56102;SDS011;41970;48.774;9.280;2023-06-26T14:17:51;5.03;;;4.53;;
56102;SDS011;41970;48.774;9.280;2023-06-26T14:20:17;6.03;;;5.10;;
56102;SDS011;41970;48.774;9.280;2023-06-26T14:22:47;6.17;;;5.50;;
56102;SDS011;41970;48.774;9.280;2023-06-26T14:25:13;5.40;;;4.90;;
56102;SDS011;41970;48.774;9.280;2023-06-26T14:27:39;5.40;;;5.00;;
56102;SDS011;41970;48.774;9.280;2023-06-26T14:30:05;5.33;;;4.70;;
56102;SDS011;41970;48.774;9.280;2023-06-26T14:32:35;4.97;;;4.47;;
56102;SDS011;41970;48.774;9.280;2023-06-26T14:35:02;5.50;;;5.00;;
56102;SDS011;41970;48.774;9.280;2023-06-26T14:37:28;4.47;;;4.10;;
56102;SDS011;41970;48.774;9.280;2023-06-26T14:39:55;4.30;;;3.90;;
56102;SDS011;41970;48.774;9.280;2023-06-26T14:42:22;5.03;;;4.10;;
56102;SDS011;41970;48.774;9.280;2023-06-26T14:44:49;8.20;;;4.47;;
56102;SDS011;41970;48.774;9.280;2023-06-26T14:47:19;5.07;;;4.00;;
56102;SDS011;41970;48.774;9.280;2023-06-26T14:49:45;4.13;;;3.73;;
56102;SDS011;41970;48.774;9.280;2023-06-26T14:52:10;5.63;;;3.70;;
56102;SDS011;41970;48.774;9.280;2023-06-26T14:54:36;4.53;;;3.60;;
56102;SDS011;41970;48.774;9.280;2023-06-26T14:57:06;3.90;;;3.60;;
56102;SDS011;41970;48.774;9.280;2023-06-26T14:59:32;5.03;;;3.50;;
56102;SDS011;41970;48.774;9.280;2023-06-26T15:01:59;4.70;;;3.80;;
56102;SDS011;41970;48.774;9.280;2023-06-26T15:04:25;4.87;;;3.40;;